E.r.bristol — A8XQ6 — position and weather

sailwx.info

Track history (hours):
 
Tides and Currents Weather Stations Pressure Air Temp Water Temp Dewpoint Dewpoint Depression Visibility Wind Speed Wind Dir Waves Ship Positions

E.r.bristol

Last reported at 2017-Jan-17 00:30 UTC. Time now 2017-Jan-18 16:15 UTC.
Position N 40°32' E 001°04'.

Length 188 m; draft 12.2 m.

Type: Cargo ship. MMSI: 636092151.

Date/timePositionNaut miles runAvg speedWind from/ knotsBaromVisibWave heightAir tempDewpointWater temp
2017-Jan-17 00:30N 40°32' E 001°04'1111.4
2017-Jan-16 23:33N 40°21' E 001°01'1111.2
2017-Jan-16 22:33N 40°10' E 000°58'1110.9
2017-Jan-16 21:32N 39°59' E 000°55'14011.2
2017-Jan-16 09:04N 37°51' W 000°16'711.6
2017-Jan-16 08:28N 37°45' W 000°21'1111.7
2017-Jan-16 07:33N 37°36' W 000°28'1211.9
2017-Jan-16 06:32N 37°27' W 000°39'1212.0
2017-Jan-16 05:32N 37°19' W 000°50'1212.1
2017-Jan-16 04:33N 37°12' W 001°01'  
2017-Jan-11 20:34N 38°03' W 023°54'1212.3
2017-Jan-11 19:33N 38°04' W 024°10'1212.4
2017-Jan-11 18:33N 38°05' W 024°26'1212.3
2017-Jan-11 17:34N 38°06' W 024°41'1212.2
2017-Jan-11 16:34N 38°06' W 024°57'1212.2
2017-Jan-11 15:34N 38°08' W 025°12'1312.5
2017-Jan-11 14:34N 38°08' W 025°28'1212.4
2017-Jan-11 13:34N 38°09' W 025°44'1212.0
2017-Jan-11 12:33N 38°10' W 025°59'1212.0
2017-Jan-11 11:34N 38°10' W 026°14'1212.0
2017-Jan-11 10:34N 38°10' W 026°29'1211.8
2017-Jan-11 09:34N 38°09' W 026°44'1212.1
2017-Jan-11 08:33N 38°09' W 026°60'1211.8
2017-Jan-11 07:33N 38°09' W 027°15'1211.8
2017-Jan-11 06:33N 38°09' W 027°30'1111.2
2017-Jan-11 05:33N 38°09' W 027°44'1111.2
2017-Jan-11 04:33N 38°08' W 027°58'1111.3
2017-Jan-11 03:33N 38°08' W 028°13'1111.1
2017-Jan-11 02:33N 38°08' W 028°27'1111.3
2017-Jan-11 01:33N 38°08' W 028°41'1111.1
2017-Jan-11 00:33N 38°09' W 028°55'1111.1
2017-Jan-10 23:33N 38°09' W 029°09'1111.1
2017-Jan-10 22:33N 38°09' W 029°24'1110.9
2017-Jan-10 21:33N 38°09' W 029°37'1110.6
2017-Jan-10 20:33N 38°09' W 029°51'1110.6
2017-Jan-10 19:33N 38°09' W 030°04'10 9.9
2017-Jan-10 18:32N 38°09' W 030°17'1010.0
2017-Jan-10 17:31N 38°08' W 030°30'3310.0
2017-Jan-10 14:12N 38°08' W 031°12'7010.6
2017-Jan-10 07:33N 38°06' W 032°42'1211.1
2017-Jan-10 06:28N 38°05' W 032°57'1211.0
2017-Jan-10 05:21N 38°05' W 033°12'3510.9
2017-Jan-10 02:05N 38°04' W 033°57'3011.5
2017-Jan-09 23:27N 38°03' W 034°36'1011.5
2017-Jan-09 22:32N 38°03' W 034°49'  
Track history (hours):
 
Tides and Currents Weather Stations Pressure Air Temp Water Temp Dewpoint Dewpoint Depression Visibility Wind Speed Wind Dir Waves Ship Positions

E.r.bristol

Last reported at 2017-Jan-17 00:30 UTC. Time now 2017-Jan-18 16:15 UTC.
Position N 40°32' E 001°04'.

Length 188 m; draft 12.2 m.

Type: Cargo ship. MMSI: 636092151.

Date/timePositionNaut miles runAvg speedWind from/ knotsBaromVisibWave heightAir tempDewpointWater temp
2017-Jan-17 00:30N 40°32' E 001°04'1111.4
2017-Jan-16 23:33N 40°21' E 001°01'1111.2
2017-Jan-16 22:33N 40°10' E 000°58'1110.9
2017-Jan-16 21:32N 39°59' E 000°55'14011.2
2017-Jan-16 09:04N 37°51' W 000°16'711.6
2017-Jan-16 08:28N 37°45' W 000°21'1111.7
2017-Jan-16 07:33N 37°36' W 000°28'1211.9
2017-Jan-16 06:32N 37°27' W 000°39'1212.0
2017-Jan-16 05:32N 37°19' W 000°50'1212.1
2017-Jan-16 04:33N 37°12' W 001°01'  
2017-Jan-11 20:34N 38°03' W 023°54'1212.3
2017-Jan-11 19:33N 38°04' W 024°10'1212.4
2017-Jan-11 18:33N 38°05' W 024°26'1212.3
2017-Jan-11 17:34N 38°06' W 024°41'1212.2
2017-Jan-11 16:34N 38°06' W 024°57'1212.2
2017-Jan-11 15:34N 38°08' W 025°12'1312.5
2017-Jan-11 14:34N 38°08' W 025°28'1212.4
2017-Jan-11 13:34N 38°09' W 025°44'1212.0
2017-Jan-11 12:33N 38°10' W 025°59'1212.0
2017-Jan-11 11:34N 38°10' W 026°14'1212.0
2017-Jan-11 10:34N 38°10' W 026°29'1211.8
2017-Jan-11 09:34N 38°09' W 026°44'1212.1
2017-Jan-11 08:33N 38°09' W 026°60'1211.8
2017-Jan-11 07:33N 38°09' W 027°15'1211.8
2017-Jan-11 06:33N 38°09' W 027°30'1111.2
2017-Jan-11 05:33N 38°09' W 027°44'1111.2
2017-Jan-11 04:33N 38°08' W 027°58'1111.3
2017-Jan-11 03:33N 38°08' W 028°13'1111.1
2017-Jan-11 02:33N 38°08' W 028°27'1111.3
2017-Jan-11 01:33N 38°08' W 028°41'1111.1
2017-Jan-11 00:33N 38°09' W 028°55'1111.1
2017-Jan-10 23:33N 38°09' W 029°09'1111.1
2017-Jan-10 22:33N 38°09' W 029°24'1110.9
2017-Jan-10 21:33N 38°09' W 029°37'1110.6
2017-Jan-10 20:33N 38°09' W 029°51'1110.6
2017-Jan-10 19:33N 38°09' W 030°04'10 9.9
2017-Jan-10 18:32N 38°09' W 030°17'1010.0
2017-Jan-10 17:31N 38°08' W 030°30'3310.0
2017-Jan-10 14:12N 38°08' W 031°12'7010.6
2017-Jan-10 07:33N 38°06' W 032°42'1211.1
2017-Jan-10 06:28N 38°05' W 032°57'1211.0
2017-Jan-10 05:21N 38°05' W 033°12'3510.9
2017-Jan-10 02:05N 38°04' W 033°57'3011.5
2017-Jan-09 23:27N 38°03' W 034°36'1011.5
2017-Jan-09 22:32N 38°03' W 034°49'  

Dump ship's entire track history